createdAt,value
2022-11-24T00:00:03.699Z,94726.00
2022-11-24T00:00:13.637Z,94726.00
2022-11-24T00:00:23.412Z,94730.00
2022-11-24T00:00:33.412Z,94728.00
2022-11-24T00:00:43.558Z,94727.00
2022-11-24T00:00:53.638Z,94722.00
2022-11-24T00:01:03.661Z,94725.00
2022-11-24T00:01:13.569Z,94729.00
2022-11-24T00:01:23.422Z,94729.00
2022-11-24T00:01:33.621Z,94732.00
2022-11-24T00:01:43.416Z,94733.00
2022-11-24T00:01:53.585Z,94729.00
2022-11-24T00:02:03.649Z,94734.00
2022-11-24T00:02:13.630Z,94739.00
2022-11-24T00:02:23.595Z,94738.00
2022-11-24T00:02:33.547Z,94733.00
2022-11-24T00:02:43.720Z,94734.00
2022-11-24T00:02:53.611Z,94735.00
2022-11-24T00:03:03.708Z,94730.00
2022-11-24T00:03:13.760Z,94735.00
2022-11-24T00:03:23.794Z,94729.00
2022-11-24T00:03:33.607Z,94734.00
2022-11-24T00:03:43.435Z,94724.00
2022-11-24T00:03:53.379Z,94729.00
2022-11-24T00:04:03.458Z,94733.00
2022-11-24T00:04:13.676Z,94730.00
2022-11-24T00:04:23.590Z,94734.00
2022-11-24T00:04:33.995Z,94734.00
2022-11-24T00:04:43.480Z,94730.00
2022-11-24T00:04:53.669Z,94731.00
2022-11-24T00:05:03.652Z,94740.00
2022-11-24T00:05:13.430Z,94743.00
2022-11-24T00:05:23.466Z,94738.00
2022-11-24T00:05:33.698Z,94735.00
2022-11-24T00:05:43.656Z,94741.00
2022-11-24T00:05:53.527Z,94738.00
2022-11-24T00:06:03.594Z,94739.00
2022-11-24T00:06:13.667Z,94741.00
2022-11-24T00:06:23.590Z,94747.00
2022-11-24T00:06:33.697Z,94736.00
2022-11-24T00:06:43.630Z,94741.00
2022-11-24T00:06:53.583Z,94739.00
2022-11-24T00:07:03.369Z,94742.00
2022-11-24T00:07:13.458Z,94738.00
2022-11-24T00:07:23.621Z,94738.00
2022-11-24T00:07:33.743Z,94742.00
2022-11-24T00:07:43.636Z,94741.00
2022-11-24T00:07:53.672Z,94741.00
2022-11-24T00:08:03.654Z,94739.00
2022-11-24T00:08:13.536Z,94742.00
2022-11-24T00:08:23.383Z,94748.00
2022-11-24T00:08:33.693Z,94741.00
2022-11-24T00:08:43.674Z,94746.00
2022-11-24T00:08:53.626Z,94746.00
2022-11-24T00:09:03.505Z,94743.00
2022-11-24T00:09:13.627Z,94745.00
2022-11-24T00:09:23.651Z,94738.00
2022-11-24T00:09:33.426Z,94739.00
2022-11-24T00:09:43.441Z,94744.00
2022-11-24T00:09:53.543Z,94748.00
2022-11-24T00:10:03.601Z,94742.00
2022-11-24T00:10:13.442Z,94746.00
2022-11-24T00:10:23.409Z,94744.00
2022-11-24T00:10:33.413Z,94747.00
2022-11-24T00:10:43.471Z,94740.00
2022-11-24T00:10:53.464Z,94745.00
2022-11-24T00:11:03.414Z,94743.00
2022-11-24T00:11:13.656Z,94745.00
2022-11-24T00:11:23.587Z,94747.00
2022-11-24T00:11:33.390Z,94748.00
2022-11-24T00:11:43.597Z,94748.00
2022-11-24T00:11:53.425Z,94747.00
2022-11-24T00:12:03.492Z,94744.00
2022-11-24T00:12:13.676Z,94747.00
2022-11-24T00:12:23.600Z,94752.00
2022-11-24T00:12:33.495Z,94743.00
2022-11-24T00:12:43.467Z,94747.00
2022-11-24T00:12:53.621Z,94747.00
2022-11-24T00:13:03.587Z,94743.00
2022-11-24T00:13:13.487Z,94747.00
2022-11-24T00:13:23.597Z,94745.00
2022-11-24T00:13:33.528Z,94747.00
2022-11-24T00:13:43.576Z,94744.00
2022-11-24T00:13:53.646Z,94748.00
2022-11-24T00:14:03.600Z,94746.00
2022-11-24T00:14:13.529Z,94745.00
2022-11-24T00:14:23.589Z,94744.00
2022-11-24T00:14:33.769Z,94743.00
2022-11-24T00:14:43.406Z,94749.00
2022-11-24T00:14:53.464Z,94752.00
2022-11-24T00:15:03.413Z,94746.00
2022-11-24T00:15:13.499Z,94752.00
2022-11-24T00:15:23.545Z,94742.00
2022-11-24T00:15:33.487Z,94749.00
2022-11-24T00:15:43.508Z,94750.00
2022-11-24T00:15:53.540Z,94746.00
2022-11-24T00:16:03.461Z,94749.00
2022-11-24T00:16:13.679Z,94751.00
2022-11-24T00:16:23.524Z,94748.00
2022-11-24T00:16:33.655Z,94751.00
2022-11-24T00:16:43.644Z,94752.00
2022-11-24T00:16:53.722Z,94753.00
2022-11-24T00:17:03.700Z,94749.00
2022-11-24T00:17:13.630Z,94752.00
2022-11-24T00:17:23.375Z,94750.00
2022-11-24T00:17:33.667Z,94750.00
2022-11-24T00:17:43.714Z,94748.00
2022-11-24T00:17:53.593Z,94747.00
2022-11-24T00:18:03.601Z,94749.00
2022-11-24T00:18:13.481Z,94752.00
2022-11-24T00:18:23.430Z,94741.00
2022-11-24T00:18:33.470Z,94751.00
2022-11-24T00:18:43.556Z,94750.00
2022-11-24T00:18:53.563Z,94752.00
2022-11-24T00:19:03.487Z,94754.00
2022-11-24T00:19:19.407Z,94750.00
2022-11-24T00:19:23.542Z,94747.00
2022-11-24T00:19:33.640Z,94746.00
2022-11-24T00:19:43.464Z,94747.00
2022-11-24T00:19:53.422Z,94752.00
2022-11-24T00:20:03.372Z,94755.00
2022-11-24T00:20:13.479Z,94754.00
2022-11-24T00:20:23.494Z,94746.00
2022-11-24T00:20:33.652Z,94754.00
2022-11-24T00:20:43.380Z,94752.00
2022-11-24T00:20:53.567Z,94756.00
2022-11-24T00:21:03.460Z,94752.00
2022-11-24T00:21:13.464Z,94756.00
2022-11-24T00:21:23.653Z,94756.00
2022-11-24T00:21:33.540Z,94759.00
2022-11-24T00:21:43.581Z,94756.00
2022-11-24T00:21:53.385Z,94752.00
2022-11-24T00:22:03.659Z,94755.00
2022-11-24T00:22:13.600Z,94759.00
2022-11-24T00:22:23.405Z,94753.00
2022-11-24T00:22:33.582Z,94758.00
2022-11-24T00:22:43.555Z,94755.00
2022-11-24T00:22:53.524Z,94758.00
2022-11-24T00:23:03.524Z,94759.00
2022-11-24T00:23:13.539Z,94756.00
2022-11-24T00:23:23.609Z,94763.00
2022-11-24T00:23:33.468Z,94764.00
2022-11-24T00:23:43.695Z,94761.00
2022-11-24T00:23:53.445Z,94764.00
2022-11-24T00:24:03.554Z,94760.00
2022-11-24T00:24:13.530Z,94762.00
2022-11-24T00:24:23.424Z,94759.00
2022-11-24T00:24:33.853Z,94757.00
2022-11-24T00:24:43.401Z,94759.00
2022-11-24T00:24:53.681Z,94758.00
2022-11-24T00:25:03.499Z,94757.00
2022-11-24T00:25:13.612Z,94754.00
2022-11-24T00:25:23.606Z,94760.00
2022-11-24T00:25:33.586Z,94760.00
2022-11-24T00:25:43.648Z,94760.00
2022-11-24T00:25:53.406Z,94754.00
2022-11-24T00:26:03.532Z,94761.00
2022-11-24T00:26:13.629Z,94764.00
2022-11-24T00:26:23.466Z,94760.00
2022-11-24T00:26:33.523Z,94759.00
2022-11-24T00:26:43.598Z,94760.00
2022-11-24T00:26:53.489Z,94759.00
2022-11-24T00:27:03.722Z,94755.00
2022-11-24T00:27:13.595Z,94758.00
2022-11-24T00:27:23.648Z,94759.00
2022-11-24T00:27:33.376Z,94755.00
2022-11-24T00:27:43.538Z,94761.00
2022-11-24T00:27:53.642Z,94759.00
2022-11-24T00:28:03.406Z,94762.00
2022-11-24T00:28:13.496Z,94760.00
2022-11-24T00:28:23.487Z,94757.00
2022-11-24T00:28:33.537Z,94764.00
2022-11-24T00:28:43.670Z,94759.00
2022-11-24T00:28:53.514Z,94762.00
2022-11-24T00:29:03.698Z,94765.00
2022-11-24T00:29:13.669Z,94760.00
2022-11-24T00:29:23.605Z,94764.00
2022-11-24T00:29:33.507Z,94764.00
2022-11-24T00:29:43.606Z,94759.00
2022-11-24T00:29:53.558Z,94763.00
2022-11-24T00:30:03.380Z,94769.00
2022-11-24T00:30:13.558Z,94766.00
2022-11-24T00:30:23.387Z,94765.00
2022-11-24T00:30:33.645Z,94765.00
2022-11-24T00:30:43.787Z,94769.00
2022-11-24T00:30:53.672Z,94762.00
2022-11-24T00:31:03.649Z,94769.00
2022-11-24T00:31:16.902Z,94768.00
2022-11-24T00:31:23.684Z,94767.00
2022-11-24T00:31:33.738Z,94766.00
2022-11-24T00:31:43.458Z,94758.00
2022-11-24T00:31:53.649Z,94764.00
2022-11-24T00:32:03.454Z,94766.00
2022-11-24T00:32:13.669Z,94766.00
2022-11-24T00:32:23.575Z,94768.00
2022-11-24T00:32:33.473Z,94765.00
2022-11-24T00:32:43.594Z,94766.00
2022-11-24T00:32:53.589Z,94761.00
2022-11-24T00:33:03.675Z,94762.00
2022-11-24T00:33:13.436Z,94765.00
2022-11-24T00:33:23.594Z,94768.00
2022-11-24T00:33:33.456Z,94766.00
2022-11-24T00:33:43.481Z,94764.00
2022-11-24T00:33:53.413Z,94768.00
2022-11-24T00:34:03.619Z,94768.00
2022-11-24T00:34:13.617Z,94767.00
2022-11-24T00:34:23.562Z,94766.00
2022-11-24T00:34:33.677Z,94763.00
2022-11-24T00:34:43.532Z,94768.00
2022-11-24T00:34:53.639Z,94769.00
2022-11-24T00:35:03.634Z,94765.00
2022-11-24T00:35:13.572Z,94769.00
2022-11-24T00:35:23.606Z,94770.00
2022-11-24T00:35:33.515Z,94767.00
2022-11-24T00:35:43.516Z,94763.00
2022-11-24T00:35:53.608Z,94767.00
2022-11-24T00:36:03.630Z,94763.00
2022-11-24T00:36:13.550Z,94768.00
2022-11-24T00:36:23.621Z,94764.00
2022-11-24T00:36:33.451Z,94766.00
2022-11-24T00:36:43.463Z,94772.00
2022-11-24T00:36:53.591Z,94768.00
2022-11-24T00:37:03.492Z,94775.00
2022-11-24T00:37:13.550Z,94760.00
2022-11-24T00:37:23.651Z,94771.00
2022-11-24T00:37:33.596Z,94770.00
2022-11-24T00:37:43.675Z,94767.00
2022-11-24T00:37:53.657Z,94769.00
2022-11-24T00:38:03.502Z,94766.00
2022-11-24T00:38:13.699Z,94777.00
2022-11-24T00:38:23.539Z,94768.00
2022-11-24T00:38:33.540Z,94766.00
2022-11-24T00:38:43.607Z,94768.00
2022-11-24T00:38:53.535Z,94771.00
2022-11-24T00:39:03.644Z,94773.00
2022-11-24T00:39:13.509Z,94777.00
2022-11-24T00:39:23.651Z,94776.00
2022-11-24T00:39:33.534Z,94778.00
2022-11-24T00:39:43.403Z,94774.00
2022-11-24T00:39:53.621Z,94781.00
2022-11-24T00:40:03.636Z,94767.00
2022-11-24T00:40:13.532Z,94771.00
2022-11-24T00:40:23.615Z,94771.00
2022-11-24T00:40:35.109Z,94766.00
2022-11-24T00:40:43.649Z,94769.00
2022-11-24T00:40:53.709Z,94774.00
2022-11-24T00:41:03.731Z,94774.00
2022-11-24T00:41:13.655Z,94775.00
2022-11-24T00:41:23.578Z,94775.00
2022-11-24T00:41:33.526Z,94778.00
2022-11-24T00:41:43.516Z,94776.00
2022-11-24T00:41:53.411Z,94777.00
2022-11-24T00:42:03.597Z,94777.00
2022-11-24T00:42:13.433Z,94779.00
2022-11-24T00:42:23.446Z,94775.00
2022-11-24T00:42:33.553Z,94778.00
2022-11-24T00:42:43.534Z,94781.00
2022-11-24T00:42:53.381Z,94780.00
2022-11-24T00:43:03.606Z,94783.00
2022-11-24T00:43:13.589Z,94785.00
2022-11-24T00:43:23.470Z,94784.00
2022-11-24T00:43:33.636Z,94788.00
2022-11-24T00:43:43.637Z,94783.00
2022-11-24T00:43:53.666Z,94782.00
2022-11-24T00:44:03.501Z,94786.00
2022-11-24T00:44:13.456Z,94787.00
2022-11-24T00:44:23.472Z,94788.00
2022-11-24T00:44:33.715Z,94787.00
2022-11-24T00:44:43.446Z,94789.00
2022-11-24T00:44:53.612Z,94786.00
2022-11-24T00:45:13.571Z,94783.00
2022-11-24T00:45:14.386Z,94785.00
2022-11-24T00:45:23.587Z,94788.00
2022-11-24T00:45:33.607Z,94785.00
2022-11-24T00:45:43.810Z,94775.00
2022-11-24T00:45:53.461Z,94785.00
2022-11-24T00:46:03.579Z,94776.00
2022-11-24T00:46:13.609Z,94788.00
2022-11-24T00:46:23.818Z,94786.00
2022-11-24T00:46:33.479Z,94788.00
2022-11-24T00:46:43.736Z,94781.00
2022-11-24T00:46:53.717Z,94785.00
2022-11-24T00:47:03.579Z,94782.00
2022-11-24T00:47:13.809Z,94783.00
2022-11-24T00:47:23.568Z,94785.00
2022-11-24T00:47:33.466Z,94779.00
2022-11-24T00:47:43.651Z,94785.00
2022-11-24T00:47:53.462Z,94776.00
2022-11-24T00:48:03.471Z,94783.00
2022-11-24T00:48:13.399Z,94779.00
2022-11-24T00:48:23.605Z,94784.00
2022-11-24T00:48:33.597Z,94782.00
2022-11-24T00:48:43.508Z,94782.00
2022-11-24T00:48:53.500Z,94780.00
2022-11-24T00:49:03.593Z,94784.00
2022-11-24T00:49:13.504Z,94782.00
2022-11-24T00:49:23.564Z,94788.00
2022-11-24T00:49:33.575Z,94787.00
2022-11-24T00:49:43.456Z,94790.00
2022-11-24T00:49:53.586Z,94793.00
2022-11-24T00:50:03.547Z,94792.00
2022-11-24T00:50:13.562Z,94788.00
2022-11-24T00:50:23.517Z,94792.00
2022-11-24T00:50:33.408Z,94790.00
2022-11-24T00:50:43.610Z,94789.00
2022-11-24T00:50:53.421Z,94794.00
2022-11-24T00:51:03.614Z,94790.00
2022-11-24T00:51:13.647Z,94797.00
2022-11-24T00:51:23.475Z,94796.00
2022-11-24T00:51:33.478Z,94796.00
2022-11-24T00:51:43.494Z,94796.00
2022-11-24T00:51:53.591Z,94795.00
2022-11-24T00:52:03.548Z,94791.00
2022-11-24T00:52:13.430Z,94791.00
2022-11-24T00:52:23.385Z,94791.00
2022-11-24T00:52:33.594Z,94796.00
2022-11-24T00:52:43.395Z,94800.00
2022-11-24T00:52:53.435Z,94799.00
2022-11-24T00:53:03.665Z,94794.00
2022-11-24T00:53:13.540Z,94787.00
2022-11-24T00:53:23.620Z,94797.00
2022-11-24T00:53:33.424Z,94795.00
2022-11-24T00:53:43.622Z,94797.00
2022-11-24T00:53:53.544Z,94799.00
2022-11-24T00:54:03.588Z,94800.00
2022-11-24T00:54:13.379Z,94797.00
2022-11-24T00:54:23.568Z,94799.00
2022-11-24T00:54:33.703Z,94798.00
2022-11-24T00:54:43.597Z,94802.00
2022-11-24T00:54:53.468Z,94803.00
2022-11-24T00:55:03.391Z,94803.00
2022-11-24T00:55:13.408Z,94800.00
2022-11-24T00:55:23.597Z,94806.00
2022-11-24T00:55:33.569Z,94801.00
2022-11-24T00:55:43.582Z,94802.00
2022-11-24T00:55:53.657Z,94802.00
2022-11-24T00:56:03.477Z,94804.00
2022-11-24T00:56:13.625Z,94811.00
2022-11-24T00:56:23.677Z,94802.00
2022-11-24T00:56:33.552Z,94806.00
2022-11-24T00:56:43.521Z,94810.00
2022-11-24T00:56:53.543Z,94810.00
2022-11-24T00:57:03.454Z,94809.00
2022-11-24T00:57:13.513Z,94811.00
2022-11-24T00:57:23.460Z,94810.00
2022-11-24T00:57:33.573Z,94807.00
2022-11-24T00:57:43.427Z,94812.00
2022-11-24T00:57:53.525Z,94814.00
2022-11-24T00:58:03.518Z,94814.00
2022-11-24T00:58:13.516Z,94818.00
2022-11-24T00:58:23.623Z,94813.00
2022-11-24T00:58:33.656Z,94806.00
2022-11-24T00:58:43.631Z,94813.00
2022-11-24T00:58:53.514Z,94814.00
2022-11-24T00:59:03.396Z,94809.00
2022-11-24T00:59:13.656Z,94815.00
2022-11-24T00:59:23.642Z,94818.00
2022-11-24T00:59:33.507Z,94816.00
2022-11-24T00:59:43.566Z,94813.00
2022-11-24T00:59:53.606Z,94815.00
2022-11-24T01:00:03.474Z,94819.00
2022-11-24T01:00:13.695Z,94819.00
2022-11-24T01:00:23.507Z,94816.00
2022-11-24T01:00:33.480Z,94821.00
2022-11-24T01:00:43.404Z,94822.00
2022-11-24T01:00:53.539Z,94823.00
2022-11-24T01:01:03.662Z,94822.00
2022-11-24T01:01:13.621Z,94822.00
2022-11-24T01:01:23.691Z,94820.00
2022-11-24T01:01:33.572Z,94821.00
2022-11-24T01:01:43.702Z,94825.00
2022-11-24T01:01:53.470Z,94825.00
2022-11-24T01:02:03.502Z,94826.00
2022-11-24T01:02:13.521Z,94822.00
2022-11-24T01:02:23.663Z,94823.00
2022-11-24T01:02:33.497Z,94828.00
2022-11-24T01:02:43.525Z,94828.00
2022-11-24T01:02:53.501Z,94828.00
2022-11-24T01:03:03.615Z,94824.00
2022-11-24T01:03:13.550Z,94826.00
2022-11-24T01:03:23.654Z,94826.00
2022-11-24T01:03:33.562Z,94829.00
2022-11-24T01:03:43.631Z,94830.00
2022-11-24T01:03:53.377Z,94827.00
2022-11-24T01:04:03.680Z,94829.00
2022-11-24T01:04:13.641Z,94825.00
2022-11-24T01:04:23.606Z,94827.00
2022-11-24T01:04:33.860Z,94831.00
2022-11-24T01:04:43.503Z,94829.00
2022-11-24T01:04:53.541Z,94830.00
2022-11-24T01:05:03.489Z,94831.00
2022-11-24T01:05:13.409Z,94833.00
2022-11-24T01:05:23.659Z,94833.00
2022-11-24T01:05:33.550Z,94834.00
2022-11-24T01:05:43.583Z,94837.00
2022-11-24T01:05:53.562Z,94834.00
2022-11-24T01:06:03.604Z,94835.00
2022-11-24T01:06:13.404Z,94833.00
2022-11-24T01:06:23.662Z,94835.00
2022-11-24T01:06:33.515Z,94835.00
2022-11-24T01:06:43.585Z,94838.00
2022-11-24T01:06:53.549Z,94839.00
2022-11-24T01:07:03.385Z,94841.00
2022-11-24T01:07:13.701Z,94838.00
2022-11-24T01:07:23.448Z,94843.00
2022-11-24T01:07:33.567Z,94839.00
2022-11-24T01:07:43.625Z,94842.00
2022-11-24T01:07:53.476Z,94845.00
2022-11-24T01:08:03.696Z,94847.00
2022-11-24T01:08:13.670Z,94844.00
2022-11-24T01:08:23.525Z,94844.00
2022-11-24T01:08:33.403Z,94848.00
2022-11-24T01:08:43.460Z,94849.00
2022-11-24T01:08:53.585Z,94846.00
2022-11-24T01:09:03.531Z,94844.00
2022-11-24T01:09:13.510Z,94844.00
2022-11-24T01:09:23.631Z,94849.00
2022-11-24T01:09:33.663Z,94840.00
2022-11-24T01:09:43.618Z,94844.00
2022-11-24T01:09:53.470Z,94842.00
2022-11-24T01:10:03.437Z,94844.00
2022-11-24T01:10:13.407Z,94844.00
2022-11-24T01:10:23.679Z,94841.00
2022-11-24T01:10:33.436Z,94843.00
2022-11-24T01:10:43.370Z,94845.00
2022-11-24T01:10:53.638Z,94847.00
2022-11-24T01:11:03.425Z,94845.00
2022-11-24T01:11:13.386Z,94845.00
2022-11-24T01:11:23.574Z,94844.00
2022-11-24T01:11:33.654Z,94844.00
2022-11-24T01:11:43.555Z,94848.00
2022-11-24T01:11:53.535Z,94849.00
2022-11-24T01:12:03.503Z,94851.00
2022-11-24T01:12:13.585Z,94852.00
2022-11-24T01:12:23.708Z,94850.00
2022-11-24T01:12:33.396Z,94848.00
2022-11-24T01:12:43.695Z,94850.00
2022-11-24T01:12:53.622Z,94851.00
2022-11-24T01:13:03.515Z,94852.00
2022-11-24T01:13:13.478Z,94853.00
2022-11-24T01:13:23.577Z,94852.00
2022-11-24T01:13:33.447Z,94849.00
2022-11-24T01:13:43.393Z,94849.00
2022-11-24T01:13:53.563Z,94858.00
2022-11-24T01:14:03.429Z,94852.00
2022-11-24T01:14:13.569Z,94853.00
2022-11-24T01:14:23.384Z,94845.00
2022-11-24T01:14:33.968Z,94849.00
2022-11-24T01:14:43.540Z,94849.00
2022-11-24T01:14:53.600Z,94845.00
2022-11-24T01:15:03.541Z,94848.00
2022-11-24T01:15:13.487Z,94849.00
2022-11-24T01:15:23.420Z,94845.00
2022-11-24T01:15:33.510Z,94846.00
2022-11-24T01:15:43.538Z,94850.00
2022-11-24T01:15:53.480Z,94849.00
2022-11-24T01:16:03.666Z,94849.00
2022-11-24T01:16:13.653Z,94850.00
2022-11-24T01:16:23.687Z,94851.00
2022-11-24T01:16:33.670Z,94849.00
2022-11-24T01:16:43.463Z,94851.00
2022-11-24T01:16:53.509Z,94854.00
2022-11-24T01:17:03.689Z,94847.00
2022-11-24T01:17:13.493Z,94851.00
2022-11-24T01:17:23.504Z,94851.00
2022-11-24T01:17:33.582Z,94846.00
2022-11-24T01:17:43.704Z,94850.00
2022-11-24T01:17:53.383Z,94848.00
2022-11-24T01:18:03.460Z,94847.00
2022-11-24T01:18:13.439Z,94843.00
2022-11-24T01:18:23.650Z,94847.00
2022-11-24T01:18:33.416Z,94851.00
2022-11-24T01:18:43.533Z,94847.00
2022-11-24T01:18:53.633Z,94852.00
2022-11-24T01:19:03.646Z,94850.00
2022-11-24T01:19:13.463Z,94847.00
2022-11-24T01:19:23.680Z,94844.00
2022-11-24T01:19:33.528Z,94848.00
2022-11-24T01:19:43.452Z,94845.00
2022-11-24T01:19:53.458Z,94850.00
2022-11-24T01:20:03.463Z,94851.00
2022-11-24T01:20:13.571Z,94856.00
2022-11-24T01:20:23.415Z,94850.00
2022-11-24T01:20:33.614Z,94852.00
2022-11-24T01:20:43.590Z,94849.00
2022-11-24T01:20:53.369Z,94851.00
2022-11-24T01:21:08.524Z,94849.00
2022-11-24T01:21:13.466Z,94848.00
2022-11-24T01:21:23.387Z,94851.00
2022-11-24T01:21:33.566Z,94854.00
2022-11-24T01:21:43.451Z,94846.00
2022-11-24T01:21:53.648Z,94848.00
2022-11-24T01:22:03.446Z,94850.00
2022-11-24T01:22:13.629Z,94855.00
2022-11-24T01:22:23.408Z,94847.00
2022-11-24T01:22:33.422Z,94848.00
2022-11-24T01:22:43.409Z,94850.00
2022-11-24T01:22:53.504Z,94855.00
2022-11-24T01:23:03.549Z,94858.00
2022-11-24T01:23:13.571Z,94855.00
2022-11-24T01:23:23.518Z,94851.00
2022-11-24T01:23:33.581Z,94855.00
2022-11-24T01:23:43.526Z,94854.00
2022-11-24T01:23:53.417Z,94857.00
2022-11-24T01:24:03.655Z,94857.00
2022-11-24T01:24:13.669Z,94855.00
2022-11-24T01:24:23.581Z,94853.00
2022-11-24T01:24:34.009Z,94852.00
2022-11-24T01:24:43.629Z,94855.00
2022-11-24T01:24:53.387Z,94852.00
2022-11-24T01:25:03.627Z,94852.00
2022-11-24T01:25:13.410Z,94854.00
2022-11-24T01:25:23.681Z,94855.00
2022-11-24T01:25:33.570Z,94855.00
2022-11-24T01:25:43.574Z,94858.00
2022-11-24T01:25:53.664Z,94852.00
2022-11-24T01:26:03.545Z,94856.00
2022-11-24T01:26:13.460Z,94851.00
2022-11-24T01:26:23.703Z,94853.00
2022-11-24T01:26:33.458Z,94855.00
2022-11-24T01:26:43.562Z,94853.00
2022-11-24T01:26:53.557Z,94854.00
2022-11-24T01:27:03.509Z,94856.00
2022-11-24T01:27:13.484Z,94855.00
2022-11-24T01:27:23.620Z,94859.00
2022-11-24T01:27:33.695Z,94860.00
2022-11-24T01:27:43.479Z,94859.00
2022-11-24T01:27:53.470Z,94860.00
2022-11-24T01:28:03.420Z,94863.00
2022-11-24T01:28:13.577Z,94862.00
2022-11-24T01:28:23.598Z,94858.00
2022-11-24T01:28:33.453Z,94865.00
2022-11-24T01:28:47.255Z,94866.00
2022-11-24T01:28:53.527Z,94867.00
2022-11-24T01:29:03.539Z,94864.00
2022-11-24T01:29:13.476Z,94864.00
2022-11-24T01:29:23.564Z,94863.00
2022-11-24T01:29:33.541Z,94865.00
2022-11-24T01:29:43.468Z,94868.00
2022-11-24T01:29:53.639Z,94868.00
2022-11-24T01:30:03.519Z,94867.00
2022-11-24T01:30:13.529Z,94867.00
2022-11-24T01:30:23.644Z,94870.00
2022-11-24T01:30:33.556Z,94868.00
2022-11-24T01:30:43.660Z,94866.00
2022-11-24T01:30:53.699Z,94864.00
2022-11-24T01:31:03.575Z,94865.00
2022-11-24T01:31:13.506Z,94865.00
2022-11-24T01:31:23.686Z,94866.00
2022-11-24T01:31:33.483Z,94863.00
2022-11-24T01:31:43.480Z,94862.00
2022-11-24T01:31:53.588Z,94864.00
2022-11-24T01:32:03.514Z,94865.00
2022-11-24T01:32:13.437Z,94868.00
2022-11-24T01:32:23.372Z,94866.00
2022-11-24T01:32:33.565Z,94866.00
2022-11-24T01:32:43.448Z,94872.00
2022-11-24T01:32:53.403Z,94868.00
2022-11-24T01:33:03.621Z,94869.00
2022-11-24T01:33:13.506Z,94867.00
2022-11-24T01:33:23.485Z,94869.00
2022-11-24T01:33:33.638Z,94867.00
2022-11-24T01:33:43.413Z,94864.00
2022-11-24T01:33:53.528Z,94866.00
2022-11-24T01:34:03.507Z,94862.00
2022-11-24T01:34:13.372Z,94873.00
2022-11-24T01:34:23.578Z,94869.00
2022-11-24T01:34:33.755Z,94868.00
2022-11-24T01:34:43.470Z,94872.00
2022-11-24T01:34:53.616Z,94872.00
2022-11-24T01:35:03.498Z,94866.00
2022-11-24T01:35:13.685Z,94870.00
2022-11-24T01:35:23.399Z,94867.00
2022-11-24T01:35:33.615Z,94871.00
2022-11-24T01:35:43.373Z,94867.00
2022-11-24T01:35:53.644Z,94870.00
2022-11-24T01:36:03.597Z,94867.00
2022-11-24T01:36:13.502Z,94868.00
2022-11-24T01:36:23.659Z,94866.00
2022-11-24T01:36:33.591Z,94867.00
2022-11-24T01:36:43.645Z,94870.00
2022-11-24T01:36:53.408Z,94876.00
2022-11-24T01:37:03.594Z,94872.00
2022-11-24T01:37:13.577Z,94876.00
2022-11-24T01:37:23.479Z,94876.00
2022-11-24T01:37:33.508Z,94876.00
2022-11-24T01:37:43.554Z,94874.00
2022-11-24T01:37:53.516Z,94875.00
2022-11-24T01:38:03.636Z,94877.00
2022-11-24T01:38:13.584Z,94879.00
2022-11-24T01:38:23.662Z,94873.00
2022-11-24T01:38:33.519Z,94875.00
2022-11-24T01:38:43.625Z,94875.00
2022-11-24T01:38:53.412Z,94864.00
2022-11-24T01:39:03.558Z,94875.00
2022-11-24T01:39:13.553Z,94870.00
2022-11-24T01:39:23.481Z,94875.00
2022-11-24T01:39:33.378Z,94873.00
2022-11-24T01:39:43.628Z,94871.00
2022-11-24T01:39:53.539Z,94864.00
2022-11-24T01:40:03.593Z,94863.00
2022-11-24T01:40:13.672Z,94869.00
2022-11-24T01:40:23.464Z,94870.00
2022-11-24T01:40:33.384Z,94867.00
2022-11-24T01:40:43.372Z,94871.00
2022-11-24T01:40:53.460Z,94870.00
2022-11-24T01:41:03.673Z,94873.00
2022-11-24T01:41:13.663Z,94869.00
2022-11-24T01:41:23.707Z,94873.00
2022-11-24T01:41:33.652Z,94872.00
2022-11-24T01:41:43.609Z,94871.00
2022-11-24T01:41:53.602Z,94872.00
2022-11-24T01:42:03.666Z,94873.00
2022-11-24T01:42:13.650Z,94873.00
2022-11-24T01:42:23.494Z,94874.00
2022-11-24T01:42:33.662Z,94877.00
2022-11-24T01:42:43.456Z,94876.00
2022-11-24T01:42:53.663Z,94879.00
2022-11-24T01:43:03.706Z,94882.00
2022-11-24T01:43:13.615Z,94881.00
2022-11-24T01:43:23.636Z,94876.00
2022-11-24T01:43:33.628Z,94879.00
2022-11-24T01:43:43.521Z,94876.00
2022-11-24T01:43:53.565Z,94875.00
2022-11-24T01:44:03.564Z,94878.00
2022-11-24T01:44:13.617Z,94878.00
2022-11-24T01:44:23.643Z,94880.00
2022-11-24T01:44:33.731Z,94875.00
2022-11-24T01:44:43.502Z,94872.00
2022-11-24T01:44:53.529Z,94875.00
2022-11-24T01:45:03.626Z,94877.00
2022-11-24T01:45:13.413Z,94881.00
2022-11-24T01:45:23.460Z,94886.00
2022-11-24T01:45:33.530Z,94885.00
2022-11-24T01:45:43.682Z,94883.00
2022-11-24T01:45:53.615Z,94883.00
2022-11-24T01:46:03.703Z,94884.00
2022-11-24T01:46:13.755Z,94879.00
2022-11-24T01:46:23.516Z,94883.00
2022-11-24T01:46:33.731Z,94884.00
2022-11-24T01:46:43.604Z,94886.00
2022-11-24T01:46:53.685Z,94886.00
2022-11-24T01:47:03.594Z,94881.00
2022-11-24T01:47:13.502Z,94880.00
2022-11-24T01:47:23.555Z,94887.00
2022-11-24T01:47:33.433Z,94886.00
2022-11-24T01:47:43.584Z,94885.00
2022-11-24T01:47:53.543Z,94883.00
2022-11-24T01:48:03.685Z,94886.00
2022-11-24T01:48:13.617Z,94886.00
2022-11-24T01:48:27.297Z,94886.00
2022-11-24T01:48:33.565Z,94886.00
2022-11-24T01:48:43.624Z,94889.00
2022-11-24T01:48:53.673Z,94881.00
2022-11-24T01:49:03.513Z,94883.00
2022-11-24T01:49:13.468Z,94883.00
2022-11-24T01:49:23.532Z,94885.00
2022-11-24T01:49:33.579Z,94882.00
2022-11-24T01:49:43.377Z,94885.00
2022-11-24T01:49:53.479Z,94886.00
2022-11-24T01:50:03.393Z,94885.00
2022-11-24T01:50:13.685Z,94888.00
2022-11-24T01:50:23.504Z,94889.00
2022-11-24T01:50:33.636Z,94887.00
2022-11-24T01:50:43.512Z,94889.00
2022-11-24T01:50:53.569Z,94889.00
2022-11-24T01:51:03.495Z,94889.00
2022-11-24T01:51:13.675Z,94888.00
2022-11-24T01:51:23.377Z,94891.00
2022-11-24T01:51:33.673Z,94892.00
2022-11-24T01:51:43.486Z,94890.00
2022-11-24T01:51:53.564Z,94886.00
2022-11-24T01:52:03.526Z,94890.00
2022-11-24T01:52:13.593Z,94888.00
2022-11-24T01:52:23.683Z,94889.00
2022-11-24T01:52:33.573Z,94890.00
2022-11-24T01:52:43.578Z,94888.00
2022-11-24T01:52:53.625Z,94889.00
2022-11-24T01:53:03.474Z,94887.00
2022-11-24T01:53:13.676Z,94894.00
2022-11-24T01:53:23.575Z,94890.00
2022-11-24T01:53:33.590Z,94890.00
2022-11-24T01:53:43.521Z,94897.00
2022-11-24T01:53:53.414Z,94894.00
2022-11-24T01:54:03.542Z,94893.00
2022-11-24T01:54:13.588Z,94890.00
2022-11-24T01:54:23.572Z,94891.00
2022-11-24T01:54:33.998Z,94885.00
2022-11-24T01:54:43.572Z,94889.00
2022-11-24T01:54:53.405Z,94892.00
2022-11-24T01:55:03.438Z,94898.00
2022-11-24T01:55:13.559Z,94891.00
2022-11-24T01:55:23.520Z,94896.00
2022-11-24T01:55:33.530Z,94900.00
2022-11-24T01:55:43.592Z,94895.00
2022-11-24T01:55:53.510Z,94893.00
2022-11-24T01:56:03.596Z,94887.00
2022-11-24T01:56:13.683Z,94896.00
2022-11-24T01:56:23.373Z,94901.00
2022-11-24T01:56:33.563Z,94896.00
2022-11-24T01:56:44.240Z,94899.00
2022-11-24T01:56:53.524Z,94901.00
2022-11-24T01:57:03.400Z,94901.00
2022-11-24T01:57:13.675Z,94899.00
2022-11-24T01:57:23.520Z,94897.00